Time;durP1;ratioP1;P1;durP2;ratioP2;P2;SDS_P1;SDS_P2;PMS_P1;PMS_P2;Temp;Humidity;BMP_temperature;BMP_pressure;BME280_temperature;BME280_humidity;BME280_pressure;Samples;Min_cycle;Max_cycle;Signal;HPM_P1;HPM_P2
2024/04/17 00:00:51;;;;;;;0.93;0.38;;;13.20;54.30;;;;;;6818643;26;20473;-67
2024/04/17 00:03:51;;;;;;;3.45;0.20;;;13.10;54.40;;;;;;6823864;26;20001;-68
2024/04/17 00:06:52;;;;;;;0.73;0.38;;;13.00;54.70;;;;;;6826784;26;20013;-67
2024/04/17 00:09:53;;;;;;;3.17;0.50;;;12.90;55.10;;;;;;6820119;26;19998;-67
2024/04/17 00:12:54;;;;;;;0.40;0.40;;;12.90;55.10;;;;;;6829532;26;19997;-66
2024/04/17 00:15:58;;;;;;;0.30;0.20;;;12.80;55.20;;;;;;6828996;26;20496;-66
2024/04/17 00:19:00;;;;;;;3.03;0.75;;;12.80;55.80;;;;;;6831078;26;20040;-67
2024/04/17 00:22:00;;;;;;;2.40;0.70;;;12.70;55.60;;;;;;6816698;26;20020;-67
2024/04/17 00:25:01;;;;;;;2.05;0.82;;;12.80;55.50;;;;;;6824261;26;20117;-67
2024/04/17 00:28:02;;;;;;;0.93;0.35;;;12.80;55.50;;;;;;6827726;26;19998;-67
2024/04/17 00:31:04;;;;;;;0.50;0.20;;;12.80;55.50;;;;;;6823455;26;20760;-68
2024/04/17 00:34:05;;;;;;;0.88;0.40;;;12.80;55.30;;;;;;6827519;26;20938;-67
2024/04/17 00:37:07;;;;;;;0.98;0.20;;;12.90;55.20;;;;;;6831632;25;20394;-66
2024/04/17 00:40:09;;;;;;;2.10;0.40;;;13.00;55.00;;;;;;6812716;26;19998;-68
2024/04/17 00:43:13;;;;;;;4.32;0.63;;;13.00;54.90;;;;;;6820563;25;19998;-67
2024/04/17 00:46:14;;;;;;;0.57;0.32;;;12.90;54.80;;;;;;6816659;25;20009;-67
2024/04/17 00:49:15;;;;;;;2.53;0.40;;;13.00;54.80;;;;;;6826335;26;20080;-66
2024/04/17 00:52:18;;;;;;;4.95;0.60;;;13.10;54.60;;;;;;6820053;25;20038;-68
2024/04/17 00:55:19;;;;;;;0.43;0.30;;;13.20;54.40;;;;;;6822816;26;19997;-67
2024/04/17 00:58:21;;;;;;;0.52;0.30;;;13.20;54.70;;;;;;6824037;26;19993;-67
2024/04/17 01:01:25;;;;;;;2.72;0.47;;;13.20;53.80;;;;;;6827694;26;20008;-68
2024/04/17 01:04:26;;;;;;;1.15;0.40;;;13.30;53.70;;;;;;6820673;25;20098;-66
2024/04/17 01:07:27;;;;;;;1.42;0.40;;;13.40;53.70;;;;;;6797613;26;19994;-67
2024/04/17 01:10:27;;;;;;;0.82;0.43;;;13.40;53.70;;;;;;6821827;26;20001;-67
2024/04/17 01:13:29;;;;;;;5.53;1.10;;;13.40;53.80;;;;;;6833377;26;20004;-66
2024/04/17 01:16:30;;;;;;;2.90;1.33;;;13.40;53.90;;;;;;6821043;26;20001;-67
2024/04/17 01:19:32;;;;;;;1.42;0.65;;;13.40;54.00;;;;;;6827586;26;20061;-67
2024/04/17 01:22:33;;;;;;;3.40;0.85;;;13.40;54.20;;;;;;6821790;25;20009;-69
2024/04/17 01:25:35;;;;;;;2.08;0.95;;;13.40;54.40;;;;;;6819509;26;20519;-67
2024/04/17 01:28:36;;;;;;;8.43;1.42;;;13.40;54.50;;;;;;6827574;25;20500;-67
2024/04/17 01:31:37;;;;;;;3.97;1.00;;;13.40;54.90;;;;;;6823238;26;20074;-67
2024/04/17 01:34:38;;;;;;;3.58;0.40;;;13.30;55.10;;;;;;6821417;26;20085;-66
2024/04/17 01:37:40;;;;;;;1.98;0.77;;;13.30;55.10;;;;;;6826244;26;20004;-66
2024/04/17 01:40:41;;;;;;;4.05;0.75;;;13.10;55.40;;;;;;6822609;26;20400;-67
2024/04/17 01:43:42;;;;;;;1.23;0.50;;;13.10;55.70;;;;;;6824912;26;20046;-66
2024/04/17 01:46:42;;;;;;;1.75;0.73;;;13.10;56.00;;;;;;6832689;25;20542;-67
2024/04/17 01:49:43;;;;;;;8.65;0.90;;;13.10;56.40;;;;;;6826964;26;20037;-66
2024/04/17 01:52:44;;;;;;;1.17;0.80;;;13.10;56.60;;;;;;6818407;26;19994;-67
2024/04/17 01:55:45;;;;;;;4.95;1.08;;;13.10;56.60;;;;;;6797945;26;20540;-68
2024/04/17 01:58:47;;;;;;;4.50;0.90;;;13.10;56.80;;;;;;6793078;26;20066;-66
2024/04/17 02:01:49;;;;;;;1.20;0.80;;;13.10;57.60;;;;;;6831416;26;20016;-67
2024/04/17 02:04:50;;;;;;;3.05;0.80;;;13.00;57.10;;;;;;6825243;26;20012;-66
2024/04/17 02:07:52;;;;;;;5.28;1.00;;;13.00;57.10;;;;;;6787773;26;19997;-67
2024/04/17 02:10:54;;;;;;;1.88;0.57;;;12.90;57.30;;;;;;6801840;26;20112;-66
2024/04/17 02:13:54;;;;;;;2.78;0.82;;;12.80;57.50;;;;;;6835669;26;20124;-69
2024/04/17 02:16:55;;;;;;;2.20;0.95;;;12.80;57.70;;;;;;6797490;26;20005;-65
2024/04/17 02:19:56;;;;;;;4.78;0.68;;;12.60;57.90;;;;;;6829321;26;20059;-67
2024/04/17 02:22:57;;;;;;;2.58;0.90;;;12.70;58.20;;;;;;6754124;26;20066;-67
2024/04/17 02:25:59;;;;;;;0.65;0.60;;;12.70;58.30;;;;;;6798238;26;20489;-67
2024/04/17 02:29:01;;;;;;;1.20;0.80;;;12.70;58.60;;;;;;6796865;26;20001;-64
2024/04/17 02:32:02;;;;;;;8.90;1.75;;;12.60;58.50;;;;;;6822182;26;19998;-67
2024/04/17 02:35:03;;;;;;;4.65;1.55;;;12.60;58.40;;;;;;6785226;26;20417;-67
2024/04/17 02:38:04;;;;;;;2.55;0.70;;;12.60;58.40;;;;;;6814111;26;20006;-66
2024/04/17 02:41:05;;;;;;;8.60;1.00;;;12.60;58.40;;;;;;6783689;26;20009;-66
2024/04/17 02:44:06;;;;;;;0.70;0.70;;;12.60;58.50;;;;;;6821893;25;20017;-67
2024/04/17 02:47:07;;;;;;;1.30;0.25;;;12.60;58.20;;;;;;6763064;26;20491;-68
2024/04/17 02:50:08;;;;;;;2.60;0.40;;;12.50;58.20;;;;;;6796690;26;19993;-67
2024/04/17 02:53:09;;;;;;;4.22;0.80;;;12.50;58.40;;;;;;6809535;26;20460;-67
2024/04/17 02:56:10;;;;;;;0.75;0.47;;;12.50;58.50;;;;;;6793126;26;19998;-68
2024/04/17 02:59:12;;;;;;;6.55;1.23;;;12.60;58.60;;;;;;6824863;26;20407;-66
2024/04/17 03:02:13;;;;;;;2.38;0.60;;;12.50;58.50;;;;;;6830763;26;20132;-67
2024/04/17 03:05:14;;;;;;;1.92;0.43;;;12.60;58.50;;;;;;6827545;25;20528;-66
2024/04/17 03:08:16;;;;;;;3.92;1.17;;;12.60;58.50;;;;;;6747048;26;19994;-66
2024/04/17 03:11:17;;;;;;;3.45;0.95;;;12.50;58.60;;;;;;6823680;26;20071;-67
2024/04/17 03:14:18;;;;;;;2.80;1.10;;;12.50;59.00;;;;;;6792339;26;19990;-67
2024/04/17 03:17:18;;;;;;;1.33;0.52;;;12.40;59.40;;;;;;6826224;26;20034;-66
2024/04/17 03:20:19;;;;;;;3.00;0.80;;;12.40;59.70;;;;;;6829950;26;19997;-67
2024/04/17 03:23:20;;;;;;;5.10;0.75;;;12.30;59.90;;;;;;6824859;26;19998;-67
2024/04/17 03:26:21;;;;;;;0.88;0.22;;;12.20;60.20;;;;;;6826558;25;20035;-67
2024/04/17 03:29:22;;;;;;;0.63;0.20;;;12.20;60.20;;;;;;6831234;25;20012;-66
2024/04/17 03:32:23;;;;;;;6.55;0.75;;;12.20;60.10;;;;;;6766246;26;20073;-67
2024/04/17 03:35:25;;;;;;;3.47;0.60;;;12.20;60.00;;;;;;6767292;26;19993;-67
2024/04/17 03:38:26;;;;;;;3.28;1.00;;;12.20;59.90;;;;;;6798704;25;20074;-66
2024/04/17 03:41:27;;;;;;;0.22;0.22;;;12.30;59.80;;;;;;6812796;25;20344;-66
2024/04/17 03:44:28;;;;;;;2.47;0.40;;;12.30;59.50;;;;;;6808629;26;20022;-66
2024/04/17 03:47:29;;;;;;;0.25;0.20;;;12.30;59.10;;;;;;6816691;26;20012;-68
2024/04/17 03:50:30;;;;;;;3.85;0.30;;;12.40;59.00;;;;;;6826705;25;19993;-67
2024/04/17 03:53:32;;;;;;;0.45;0.30;;;12.30;58.50;;;;;;6816426;26;20120;-67
2024/04/17 03:56:33;;;;;;;1.02;0.77;;;12.30;58.60;;;;;;6825432;26;20064;-66
2024/04/17 03:59:35;;;;;;;1.10;0.68;;;12.30;58.70;;;;;;6820652;26;20037;-66
2024/04/17 04:02:36;;;;;;;5.00;0.47;;;12.30;58.60;;;;;;6826682;26;20005;-66
2024/04/17 04:05:43;;;;;;;1.02;0.38;;;12.30;58.50;;;;;;6816193;26;20730;-66
2024/04/17 04:08:44;;;;;;;0.95;0.50;;;12.30;58.00;;;;;;6819769;25;20401;-66
2024/04/17 04:11:45;;;;;;;2.92;0.50;;;12.20;57.80;;;;;;6801364;26;20073;-66
2024/04/17 04:14:46;;;;;;;1.20;0.30;;;12.20;57.90;;;;;;6824450;26;20128;-66
2024/04/17 04:17:47;;;;;;;0.10;0.10;;;12.30;57.70;;;;;;6829944;26;20692;-66
2024/04/17 04:20:49;;;;;;;0.25;0.15;;;12.20;57.60;;;;;;6823828;26;19997;-66
2024/04/17 04:23:50;;;;;;;3.50;0.60;;;12.20;57.30;;;;;;6795075;26;20335;-67
2024/04/17 04:26:51;;;;;;;0.17;0.17;;;12.20;57.50;;;;;;6799022;26;20017;-67
2024/04/17 04:29:54;;;;;;;0.95;0.50;;;12.30;57.70;;;;;;6818781;25;20412;-66
2024/04/17 04:32:54;;;;;;;1.88;0.45;;;12.30;57.60;;;;;;6825198;26;20002;-67
2024/04/17 04:35:56;;;;;;;1.05;0.40;;;12.30;57.60;;;;;;6792175;26;20011;-66
2024/04/17 04:38:59;;;;;;;0.38;0.22;;;12.30;57.50;;;;;;6826739;26;20078;-69
2024/04/17 04:41:59;;;;;;;1.30;0.30;;;12.40;57.70;;;;;;6825381;25;20002;-66
2024/04/17 04:45:01;;;;;;;0.85;0.63;;;12.30;57.70;;;;;;6791531;26;20132;-67
2024/04/17 04:48:02;;;;;;;0.70;0.25;;;12.30;57.90;;;;;;6830462;26;19993;-70
2024/04/17 04:51:03;;;;;;;0.28;0.10;;;12.20;58.00;;;;;;6811098;26;20107;-67
2024/04/17 04:54:04;;;;;;;0.20;0.15;;;12.20;58.10;;;;;;6821820;25;20364;-67
2024/04/17 04:57:05;;;;;;;0.43;0.30;;;12.30;58.30;;;;;;6789421;26;20016;-68
2024/04/17 05:00:07;;;;;;;1.02;0.30;;;12.30;58.60;;;;;;6826055;26;20517;-68
2024/04/17 05:03:07;;;;;;;3.55;0.50;;;12.30;58.70;;;;;;6829203;26;19998;-67
2024/04/17 05:06:09;;;;;;;0.93;0.30;;;12.30;58.90;;;;;;6827462;25;20408;-68
2024/04/17 05:09:10;;;;;;;0.38;0.38;;;12.30;59.00;;;;;;6795669;26;20004;-67
2024/04/17 05:12:11;;;;;;;1.17;0.30;;;12.20;59.10;;;;;;6832363;26;20001;-68
2024/04/17 05:15:11;;;;;;;0.10;0.10;;;12.20;59.40;;;;;;6823584;25;20009;-67
2024/04/17 05:18:12;;;;;;;0.20;0.20;;;12.10;59.50;;;;;;6827085;26;20448;-67
2024/04/17 05:21:14;;;;;;;2.28;0.50;;;12.10;59.40;;;;;;6828263;26;20074;-67
2024/04/17 05:24:15;;;;;;;0.55;0.20;;;12.00;59.30;;;;;;6820421;26;20005;-66
2024/04/17 05:27:17;;;;;;;0.47;0.32;;;11.90;59.20;;;;;;6829121;26;19990;-65
2024/04/17 05:30:18;;;;;;;0.20;0.20;;;11.80;59.30;;;;;;6822692;26;20020;-67
2024/04/17 05:33:19;;;;;;;0.30;0.30;;;11.80;59.40;;;;;;6826312;25;19997;-66
2024/04/17 05:36:20;;;;;;;0.93;0.32;;;11.80;59.60;;;;;;6828993;26;20194;-67
2024/04/17 05:39:21;;;;;;;0.40;0.25;;;11.90;59.50;;;;;;6832717;25;20001;-66
2024/04/17 05:42:24;;;;;;;0.43;0.28;;;12.00;59.30;;;;;;6823215;25;20021;-66
2024/04/17 05:45:24;;;;;;;1.52;0.45;;;12.10;59.20;;;;;;6821697;25;21958;-67
2024/04/17 05:48:26;;;;;;;0.57;0.50;;;12.10;59.00;;;;;;6825991;25;20129;-68
2024/04/17 05:51:27;;;;;;;0.40;0.30;;;12.20;58.80;;;;;;6814778;25;19994;-68
2024/04/17 05:54:28;;;;;;;1.45;0.43;;;12.30;58.60;;;;;;6815510;25;19998;-69
2024/04/17 05:57:31;;;;;;;1.27;0.38;;;12.30;58.20;;;;;;6822587;25;20082;-69
2024/04/17 06:00:33;;;;;;;0.30;0.30;;;12.40;58.00;;;;;;6795444;25;20329;-67
2024/04/17 06:03:35;;;;;;;1.65;0.63;;;12.40;57.80;;;;;;6827444;25;20093;-68
2024/04/17 06:06:35;;;;;;;0.70;0.70;;;12.30;58.10;;;;;;6763849;26;20540;-67
2024/04/17 06:09:40;;;;;;;0.60;0.60;;;12.30;58.60;;;;;;6763255;26;20022;-67
2024/04/17 06:12:40;;;;;;;1.25;0.68;;;12.30;58.80;;;;;;6799036;25;20008;-67
2024/04/17 06:15:41;;;;;;;1.02;0.50;;;12.40;58.80;;;;;;6822115;26;20009;-69
2024/04/17 06:18:42;;;;;;;0.95;0.50;;;12.50;58.70;;;;;;6827278;26;20013;-68
2024/04/17 06:21:43;;;;;;;3.25;0.52;;;12.50;58.70;;;;;;6794835;26;20010;-68
2024/04/17 06:24:44;;;;;;;1.45;0.60;;;12.60;58.80;;;;;;6828911;26;20043;-68
2024/04/17 06:27:45;;;;;;;0.80;0.40;;;12.60;58.80;;;;;;6824325;26;20101;-68
2024/04/17 06:30:45;;;;;;;3.03;0.70;;;12.70;59.00;;;;;;6798761;26;20414;-68
2024/04/17 06:33:48;;;;;;;4.03;0.85;;;12.70;58.90;;;;;;6791101;26;19990;-67
2024/04/17 06:36:49;;;;;;;1.73;0.70;;;12.80;58.80;;;;;;6755108;26;20001;-68
2024/04/17 06:39:51;;;;;;;0.38;0.38;;;12.90;58.70;;;;;;6753053;26;20004;-67
2024/04/17 06:42:51;;;;;;;5.63;0.75;;;13.10;58.60;;;;;;6798574;26;20013;-68
2024/04/17 06:45:52;;;;;;;0.32;0.32;;;13.20;58.30;;;;;;6816299;26;20377;-68
2024/04/17 06:48:53;;;;;;;1.98;0.35;;;13.20;57.90;;;;;;6796401;26;20015;-67
2024/04/17 06:51:55;;;;;;;3.88;0.75;;;13.30;57.60;;;;;;6781446;26;20042;-68
2024/04/17 06:54:57;;;;;;;2.22;0.73;;;13.30;57.30;;;;;;6798067;26;20045;-69
2024/04/17 06:57:58;;;;;;;0.63;0.40;;;13.30;57.10;;;;;;6758239;26;20069;-69
2024/04/17 07:00:59;;;;;;;1.02;0.40;;;13.30;57.00;;;;;;6799778;26;20001;-68
2024/04/17 07:04:00;;;;;;;2.05;0.65;;;13.30;56.90;;;;;;6795380;26;20561;-69
2024/04/17 07:07:01;;;;;;;1.15;0.55;;;13.40;56.70;;;;;;6790938;26;20009;-67
2024/04/17 07:10:04;;;;;;;4.03;0.35;;;13.50;56.50;;;;;;6800810;25;20465;-68
2024/04/17 07:13:05;;;;;;;0.22;0.17;;;13.50;56.10;;;;;;6828735;26;20024;-68
2024/04/17 07:16:05;;;;;;;0.22;0.22;;;13.60;55.60;;;;;;6765794;26;19997;-68
2024/04/17 07:19:07;;;;;;;0.52;0.30;;;13.60;55.30;;;;;;6821342;26;20560;-68
2024/04/17 07:22:08;;;;;;;0.60;0.43;;;13.80;55.10;;;;;;6781490;26;19993;-69
2024/04/17 07:25:11;;;;;;;1.10;0.70;;;13.70;54.60;;;;;;6827782;25;20962;-68
2024/04/17 07:28:11;;;;;;;7.85;0.55;;;13.90;54.50;;;;;;6799239;26;20085;-68
2024/04/17 07:31:12;;;;;;;8.60;1.00;;;13.80;54.10;;;;;;6790277;25;20359;-67
2024/04/17 07:34:13;;;;;;;1.35;0.70;;;13.90;53.90;;;;;;6794893;26;20333;-67
2024/04/17 07:37:15;;;;;;;0.43;0.43;;;14.00;53.60;;;;;;6797135;26;20013;-67
2024/04/17 07:40:16;;;;;;;0.32;0.32;;;14.10;52.90;;;;;;6757256;25;20026;-69
2024/04/17 07:43:19;;;;;;;1.75;0.50;;;14.10;52.40;;;;;;6784197;26;19993;-67
2024/04/17 07:46:20;;;;;;;0.90;0.50;;;14.10;52.20;;;;;;6797915;26;20790;-68
2024/04/17 07:49:21;;;;;;;0.52;0.50;;;14.20;52.40;;;;;;6810367;26;19997;-68
2024/04/17 07:52:22;;;;;;;2.00;0.50;;;14.20;52.60;;;;;;6823795;26;20824;-69
2024/04/17 07:55:23;;;;;;;1.70;0.50;;;14.30;52.60;;;;;;6799570;26;19993;-66
2024/04/17 07:58:24;;;;;;;0.40;0.40;;;14.20;52.30;;;;;;6787656;26;20398;-69
2024/04/17 08:01:26;;;;;;;1.52;0.50;;;14.30;52.00;;;;;;6824860;26;20437;-69
2024/04/17 08:04:26;;;;;;;0.55;0.50;;;14.50;51.80;;;;;;6794236;25;19993;-69
2024/04/17 08:07:28;;;;;;;1.17;0.75;;;14.60;51.50;;;;;;6822134;25;20791;-69
2024/04/17 08:10:29;;;;;;;0.32;0.32;;;14.80;51.20;;;;;;6779948;26;20031;-69
2024/04/17 08:13:30;;;;;;;4.15;0.63;;;14.90;50.80;;;;;;6778241;26;19998;-68
2024/04/17 08:16:30;;;;;;;0.73;0.30;;;15.00;50.60;;;;;;6790568;26;20547;-69
2024/04/17 08:19:34;;;;;;;0.30;0.20;;;15.10;50.20;;;;;;6787407;26;19998;-67
2024/04/17 08:22:35;;;;;;;0.55;0.55;;;15.10;49.80;;;;;;6791897;26;20004;-67
2024/04/17 08:25:36;;;;;;;0.45;0.40;;;15.10;49.30;;;;;;6762061;26;19997;-69
2024/04/17 08:28:38;;;;;;;0.30;0.30;;;15.10;49.30;;;;;;6793029;26;21499;-68
2024/04/17 08:31:39;;;;;;;0.20;0.20;;;15.10;49.30;;;;;;6794506;26;20301;-68
2024/04/17 08:34:40;;;;;;;0.47;0.40;;;15.10;48.90;;;;;;6792622;26;20416;-68
2024/04/17 08:37:41;;;;;;;0.68;0.28;;;15.10;48.60;;;;;;6786046;26;20014;-68
2024/04/17 08:40:43;;;;;;;0.80;0.40;;;15.20;48.80;;;;;;6820659;25;20017;-67
2024/04/17 08:43:46;;;;;;;1.02;0.50;;;15.20;48.50;;;;;;6824450;25;20070;-67
2024/04/17 08:46:49;;;;;;;0.20;0.20;;;15.20;48.00;;;;;;6793815;25;20001;-67
2024/04/17 08:49:52;;;;;;;4.55;0.50;;;15.10;47.70;;;;;;6791714;26;20044;-67
2024/04/17 08:52:54;;;;;;;2.25;0.80;;;15.10;47.70;;;;;;6800648;25;20012;-71
2024/04/17 08:55:56;;;;;;;1.08;0.60;;;15.10;47.90;;;;;;6820533;26;19997;-69
2024/04/17 08:58:56;;;;;;;3.65;0.75;;;15.20;47.90;;;;;;6786251;26;20038;-70
2024/04/17 09:02:00;;;;;;;0.30;0.30;;;15.30;47.60;;;;;;6813222;26;20156;-68
2024/04/17 09:05:04;;;;;;;0.60;0.40;;;15.30;47.40;;;;;;6818157;26;20008;-69
2024/04/17 09:08:07;;;;;;;0.52;0.22;;;15.50;47.30;;;;;;6813824;26;20008;-68
2024/04/17 09:11:08;;;;;;;0.30;0.30;;;15.60;47.00;;;;;;6789798;26;20037;-69
2024/04/17 09:14:09;;;;;;;0.40;0.20;;;15.80;46.70;;;;;;6826599;25;20063;-68
2024/04/17 09:17:12;;;;;;;0.20;0.20;;;15.80;46.40;;;;;;6821972;25;20001;-68
2024/04/17 09:20:14;;;;;;;0.65;0.43;;;15.90;46.30;;;;;;6823159;26;20004;-69
2024/04/17 09:23:16;;;;;;;0.63;0.30;;;16.00;46.00;;;;;;6826874;26;19998;-68
2024/04/17 09:26:20;;;;;;;2.70;1.10;;;16.10;45.80;;;;;;6824023;25;20009;-65
2024/04/17 09:29:20;;;;;;;3.50;0.30;;;16.20;45.80;;;;;;6819135;26;19994;-69
2024/04/17 09:32:22;;;;;;;0.75;0.52;;;16.30;45.70;;;;;;6830509;25;20066;-68
2024/04/17 09:35:23;;;;;;;3.60;0.88;;;16.30;45.40;;;;;;6827127;26;20324;-67
2024/04/17 09:38:26;;;;;;;0.80;0.30;;;16.50;45.20;;;;;;6792899;25;20047;-68
2024/04/17 09:41:29;;;;;;;1.48;0.40;;;16.70;44.80;;;;;;6811084;25;20001;-67
2024/04/17 09:44:31;;;;;;;0.20;0.20;;;16.70;44.00;;;;;;6827811;25;20421;-67
2024/04/17 09:47:35;;;;;;;0.98;0.30;;;16.90;43.60;;;;;;6824850;25;19997;-68
2024/04/17 09:50:37;;;;;;;3.47;0.50;;;17.20;43.30;;;;;;6810811;26;20454;-68
2024/04/17 09:54:03;;;;;;;0.73;0.40;;;17.50;42.00;;;;;;6792464;25;20495;-66
2024/04/17 09:57:05;;;;;;;0.80;0.30;;;17.60;41.90;;;;;;6831348;25;20001;-68
2024/04/17 10:00:10;;;;;;;1.83;0.40;;;17.60;41.20;;;;;;6822481;25;20373;-68
2024/04/17 10:03:15;;;;;;;13.23;0.50;;;17.50;40.90;;;;;;6816602;25;20081;-68
2024/04/17 10:06:21;;;;;;;0.65;0.43;;;17.20;40.10;;;;;;6765860;25;20009;-69
2024/04/17 10:09:24;;;;;;;2.25;0.50;;;16.80;40.00;;;;;;6794221;25;20024;-67
2024/04/17 10:12:27;;;;;;;1.30;0.47;;;16.40;40.60;;;;;;6830669;25;20663;-67
2024/04/17 10:15:28;;;;;;;0.47;0.40;;;16.10;41.80;;;;;;6823204;25;19993;-69
2024/04/17 10:18:30;;;;;;;0.70;0.40;;;15.80;42.90;;;;;;6828157;25;20033;-70
2024/04/17 10:21:37;;;;;;;2.70;0.73;;;15.40;43.90;;;;;;6821144;25;20105;-69
2024/04/17 10:24:39;;;;;;;0.50;0.50;;;14.90;45.50;;;;;;6827517;25;20073;-68
2024/04/17 10:27:40;;;;;;;2.17;0.60;;;14.50;46.90;;;;;;6823244;25;20405;-70
2024/04/17 10:30:42;;;;;;;0.20;0.20;;;14.10;47.70;;;;;;6820947;25;20002;-69
2024/04/17 10:33:43;;;;;;;3.47;0.50;;;13.80;48.10;;;;;;6828460;25;20009;-68
2024/04/17 10:36:52;;;;;;;0.32;0.30;;;13.60;48.60;;;;;;6828315;25;20004;-68
2024/04/17 10:39:54;;;;;;;5.30;1.20;;;13.40;48.60;;;;;;6822205;26;20010;-67
2024/04/17 10:42:57;;;;;;;0.55;0.55;;;13.40;48.80;;;;;;6796496;26;20413;-68
2024/04/17 10:46:04;;;;;;;1.05;0.50;;;13.50;49.00;;;;;;6835453;25;20005;-68
2024/04/17 10:49:16;;;;;;;0.63;0.30;;;13.70;49.00;;;;;;6822349;26;19998;-67
2024/04/17 10:52:19;;;;;;;0.50;0.45;;;14.20;48.60;;;;;;6828692;26;20127;-67
2024/04/17 10:55:20;;;;;;;2.65;1.05;;;14.50;47.90;;;;;;6824824;26;20020;-70
2024/04/17 10:58:24;;;;;;;0.50;0.50;;;14.60;47.40;;;;;;6826650;25;19993;-68
2024/04/17 11:01:25;;;;;;;2.88;0.80;;;14.60;46.70;;;;;;6780948;26;20468;-69
2024/04/17 11:04:27;;;;;;;1.63;0.40;;;14.90;46.80;;;;;;6802015;25;19993;-68
2024/04/17 11:07:32;;;;;;;2.25;0.90;;;15.20;46.10;;;;;;6823870;26;20016;-68
2024/04/17 11:10:32;;;;;;;1.70;0.80;;;15.40;45.40;;;;;;6788039;25;19990;-69
2024/04/17 11:13:44;;;;;;;0.28;0.28;;;15.70;45.10;;;;;;6821282;26;20066;-67
2024/04/17 11:16:46;;;;;;;0.30;0.30;;;15.80;44.70;;;;;;6797462;25;20016;-68
2024/04/17 11:19:47;;;;;;;0.70;0.50;;;15.90;44.10;;;;;;6827353;25;20017;-67
2024/04/17 11:22:48;;;;;;;0.55;0.30;;;15.90;43.10;;;;;;6822620;25;20411;-69
2024/04/17 11:25:49;;;;;;;3.75;0.70;;;16.10;42.30;;;;;;6823947;25;20512;-67
2024/04/17 11:28:50;;;;;;;0.35;0.32;;;16.40;41.90;;;;;;6813038;25;20515;-67
2024/04/17 11:31:52;;;;;;;1.17;0.63;;;17.10;41.40;;;;;;6821558;26;20006;-65
2024/04/17 11:34:52;;;;;;;2.58;0.47;;;17.90;40.40;;;;;;6818904;25;19997;-69
2024/04/17 11:37:54;;;;;;;0.82;0.47;;;18.30;38.90;;;;;;6826709;26;19998;-68
2024/04/17 11:40:56;;;;;;;0.55;0.43;;;18.30;38.40;;;;;;6788123;26;19997;-67
2024/04/17 11:43:58;;;;;;;3.22;0.88;;;18.30;38.40;;;;;;6823962;26;20396;-67
2024/04/17 11:46:58;;;;;;;2.10;0.60;;;18.30;38.10;;;;;;6830343;26;20528;-68
2024/04/17 11:49:59;;;;;;;2.92;0.90;;;18.20;38.30;;;;;;6831184;26;20762;-67
2024/04/17 11:53:00;;;;;;;0.80;0.75;;;17.90;39.20;;;;;;6817541;25;20022;-68
2024/04/17 11:56:01;;;;;;;1.98;0.77;;;17.70;40.40;;;;;;6782918;26;20021;-68
2024/04/17 11:59:03;;;;;;;4.70;0.80;;;17.20;42.00;;;;;;6782780;26;19994;-69
2024/04/17 12:02:06;;;;;;;1.38;0.70;;;16.70;43.60;;;;;;6824565;26;19997;-66
2024/04/17 12:05:08;;;;;;;3.92;0.52;;;16.50;44.40;;;;;;6788704;26;20599;-68
2024/04/17 12:08:10;;;;;;;0.45;0.45;;;16.50;44.70;;;;;;6820034;25;20128;-67
2024/04/17 12:11:11;;;;;;;3.70;1.08;;;16.50;44.60;;;;;;6788575;26;20548;-69
2024/04/17 12:14:11;;;;;;;0.73;0.57;;;16.60;44.60;;;;;;6788909;26;19997;-67
2024/04/17 12:17:12;;;;;;;3.13;0.45;;;16.80;44.40;;;;;;6790339;26;19993;-67
2024/04/17 12:20:13;;;;;;;0.60;0.60;;;17.00;43.80;;;;;;6761310;25;20126;-68
2024/04/17 12:23:23;;;;;;;3.17;0.50;;;17.10;42.90;;;;;;6821720;26;20036;-67
2024/04/17 12:29:44;;;;;;;0.38;0.35;;;17.00;41.60;;;;;;6786854;26;20057;-65
2024/04/17 12:32:45;;;;;;;3.70;0.60;;;16.80;41.00;;;;;;6761682;26;20005;-69
2024/04/17 12:35:46;;;;;;;3.80;1.00;;;16.40;41.10;;;;;;6763104;26;20085;-67
2024/04/17 12:38:47;;;;;;;0.40;0.40;;;16.10;41.60;;;;;;6790443;26;20009;-66
2024/04/17 12:41:48;;;;;;;0.47;0.47;;;16.40;41.70;;;;;;6784733;26;20005;-69
2024/04/17 12:44:49;;;;;;;2.05;0.40;;;17.50;40.50;;;;;;6796324;26;20009;-68
2024/04/17 12:47:51;;;;;;;2.10;0.60;;;18.90;37.90;;;;;;6785195;25;19994;-67
2024/04/17 12:50:52;;;;;;;0.70;0.50;;;19.70;35.00;;;;;;6786971;26;20015;-68
2024/04/17 12:53:53;;;;;;;3.85;1.35;;;19.50;34.80;;;;;;6822884;26;20049;-69
2024/04/17 12:56:54;;;;;;;0.50;0.38;;;19.60;35.10;;;;;;6802522;25;20065;-68
2024/04/17 12:59:55;;;;;;;2.28;0.52;;;19.60;34.80;;;;;;6792357;25;20505;-69
2024/04/17 13:02:56;;;;;;;0.77;0.47;;;19.40;34.50;;;;;;6825462;26;19998;-67
2024/04/17 13:06:03;;;;;;;0.45;0.45;;;18.90;34.10;;;;;;6822755;26;20002;-66
2024/04/17 13:09:05;;;;;;;0.55;0.45;;;18.40;34.20;;;;;;6805672;26;20001;-68
2024/04/17 13:12:07;;;;;;;1.23;0.40;;;17.90;34.30;;;;;;6823322;26;20358;-69
2024/04/17 13:15:07;;;;;;;1.45;0.63;;;17.50;35.20;;;;;;6765384;26;20112;-68
2024/04/17 13:18:09;;;;;;;2.30;0.63;;;17.40;35.90;;;;;;6761946;26;20007;-67
2024/04/17 13:21:10;;;;;;;0.50;0.50;;;17.30;36.10;;;;;;6758916;26;20014;-68
2024/04/17 13:24:11;;;;;;;0.70;0.60;;;17.40;36.10;;;;;;6828736;26;20581;-67
2024/04/17 13:27:12;;;;;;;0.60;0.30;;;17.40;36.00;;;;;;6798733;26;19997;-68
2024/04/17 13:30:12;;;;;;;0.98;0.40;;;17.50;35.60;;;;;;6788604;26;20016;-67
2024/04/17 13:33:13;;;;;;;3.03;0.40;;;17.40;36.00;;;;;;6799475;26;20421;-69
2024/04/17 13:36:14;;;;;;;8.10;0.40;;;17.40;35.60;;;;;;6795164;25;20005;-67
2024/04/17 13:39:15;;;;;;;0.77;0.50;;;17.30;35.50;;;;;;6827561;25;20085;-67
2024/04/17 13:42:17;;;;;;;2.38;0.73;;;17.10;35.70;;;;;;6796323;26;20105;-68
2024/04/17 13:45:21;;;;;;;2.83;0.47;;;16.90;36.00;;;;;;6798251;26;20007;-67
2024/04/17 13:48:23;;;;;;;1.20;0.40;;;16.80;36.30;;;;;;6832545;26;20021;-67
2024/04/17 13:51:26;;;;;;;2.15;0.43;;;16.70;36.70;;;;;;6824009;26;20032;-68
2024/04/17 13:54:30;;;;;;;3.95;0.60;;;16.70;36.80;;;;;;6820658;26;19994;-68
2024/04/17 13:57:32;;;;;;;2.05;0.70;;;16.80;37.10;;;;;;6792940;26;20366;-69
2024/04/17 14:00:36;;;;;;;0.70;0.40;;;18.30;35.90;;;;;;6802693;26;20084;-69
2024/04/17 14:03:41;;;;;;;1.80;0.38;;;20.40;33.30;;;;;;6826140;26;20084;-67
2024/04/17 14:06:42;;;;;;;0.50;0.50;;;22.20;30.50;;;;;;6791779;26;20285;-68
2024/04/17 14:09:43;;;;;;;0.80;0.50;;;23.60;28.70;;;;;;6826504;25;20070;-69
2024/04/17 14:12:44;;;;;;;0.32;0.30;;;24.60;27.60;;;;;;6799077;26;20436;-67
2024/04/17 14:15:45;;;;;;;2.08;0.50;;;25.20;26.20;;;;;;6796987;26;19993;-68
2024/04/17 14:18:47;;;;;;;1.95;0.60;;;24.50;26.40;;;;;;6827689;25;20020;-68
2024/04/17 14:21:48;;;;;;;0.52;0.40;;;23.60;27.30;;;;;;6828926;26;19998;-68
2024/04/17 14:24:52;;;;;;;0.45;0.45;;;22.70;28.00;;;;;;6796676;25;20033;-68
2024/04/17 14:27:52;;;;;;;0.68;0.50;;;21.90;28.60;;;;;;6792096;25;20121;-68
2024/04/17 14:30:55;;;;;;;1.48;0.52;;;21.20;29.50;;;;;;6792593;26;20005;-68
2024/04/17 14:33:57;;;;;;;0.32;0.30;;;20.70;30.00;;;;;;6793870;26;19998;-68
2024/04/17 14:36:59;;;;;;;3.33;0.68;;;20.10;30.40;;;;;;6755389;26;19998;-67
2024/04/17 14:40:01;;;;;;;4.07;0.57;;;19.60;30.90;;;;;;6763058;26;20479;-67
2024/04/17 14:43:03;;;;;;;1.10;0.50;;;19.10;31.40;;;;;;6795716;26;20020;-67
2024/04/17 14:46:06;;;;;;;1.85;0.50;;;18.70;32.80;;;;;;6789011;26;20077;-66
2024/04/17 14:49:07;;;;;;;0.55;0.40;;;18.30;32.80;;;;;;6831656;25;20070;-68
2024/04/17 14:52:09;;;;;;;0.82;0.40;;;18.10;33.40;;;;;;6825199;26;20073;-67
2024/04/17 14:55:12;;;;;;;0.50;0.50;;;17.90;33.70;;;;;;6830563;25;20032;-66
2024/04/17 14:58:14;;;;;;;1.58;0.60;;;17.60;34.00;;;;;;6798084;26;20008;-67
2024/04/17 15:01:15;;;;;;;0.45;0.40;;;17.30;35.00;;;;;;6794891;26;20327;-68
2024/04/17 15:04:18;;;;;;;1.30;0.50;;;17.00;37.20;;;;;;6795120;25;20159;-65
2024/04/17 15:07:19;;;;;;;0.43;0.40;;;16.20;40.20;;;;;;6824977;26;20009;-68
2024/04/17 15:10:20;;;;;;;2.17;0.70;;;15.30;42.70;;;;;;6754097;26;19995;-67
2024/04/17 15:13:24;;;;;;;0.10;0.10;;;14.60;45.70;;;;;;6763727;26;19998;-69
2024/04/17 15:16:25;;;;;;;0.90;0.60;;;13.90;48.30;;;;;;6829644;26;20084;-67
2024/04/17 15:19:31;;;;;;;0.10;0.10;;;13.40;49.70;;;;;;6759486;26;20437;-68
2024/04/17 15:22:33;;;;;;;0.40;0.40;;;13.00;50.30;;;;;;6820401;26;20006;-67
2024/04/17 15:25:34;;;;;;;0.20;0.20;;;12.80;51.40;;;;;;6791088;26;20013;-68
2024/04/17 15:28:36;;;;;;;0.15;0.15;;;12.70;52.00;;;;;;6749985;25;20473;-67
2024/04/17 15:31:37;;;;;;;0.57;0.40;;;12.70;52.20;;;;;;6794958;26;20574;-67
2024/04/17 15:34:37;;;;;;;0.25;0.17;;;12.70;52.00;;;;;;6816749;25;20138;-66
2024/04/17 15:37:38;;;;;;;0.40;0.40;;;12.80;52.10;;;;;;6764744;26;19993;-66
2024/04/17 15:40:43;;;;;;;0.10;0.10;;;12.90;52.10;;;;;;6790766;26;19997;-68
2024/04/17 15:43:47;;;;;;;0.95;0.40;;;13.10;51.70;;;;;;6798405;26;20001;-68
2024/04/17 15:46:49;;;;;;;0.63;0.25;;;13.30;51.30;;;;;;6822910;26;19993;-69
2024/04/17 15:49:53;;;;;;;0.45;0.10;;;13.30;50.90;;;;;;6790211;26;20020;-68